sensor_id;sensor_type;location;lat;lon;timestamp;P1;durP1;ratioP1;P2;durP2;ratioP2
42104;SDS011;70664;51.472;5.712;2023-08-24T00:00:07;3.25;;;2.30;;
42104;SDS011;70664;51.472;5.712;2023-08-24T00:02:40;5.10;;;2.72;;
42104;SDS011;70664;51.472;5.712;2023-08-24T00:08:54;3.85;;;2.33;;
42104;SDS011;70664;51.472;5.712;2023-08-24T00:11:20;3.70;;;2.40;;
42104;SDS011;70664;51.472;5.712;2023-08-24T00:13:55;3.15;;;2.38;;
42104;SDS011;70664;51.472;5.712;2023-08-24T00:16:31;4.32;;;2.38;;
42104;SDS011;70664;51.472;5.712;2023-08-24T00:19:00;3.60;;;2.45;;
42104;SDS011;70664;51.472;5.712;2023-08-24T00:21:35;3.22;;;2.45;;
42104;SDS011;70664;51.472;5.712;2023-08-24T00:27:35;2.75;;;2.40;;
42104;SDS011;70664;51.472;5.712;2023-08-24T00:30:05;3.95;;;2.45;;
42104;SDS011;70664;51.472;5.712;2023-08-24T00:32:56;4.63;;;2.80;;
42104;SDS011;70664;51.472;5.712;2023-08-24T00:35:25;4.20;;;2.50;;
42104;SDS011;70664;51.472;5.712;2023-08-24T00:37:56;3.55;;;2.30;;
42104;SDS011;70664;51.472;5.712;2023-08-24T00:40:37;4.15;;;2.45;;
42104;SDS011;70664;51.472;5.712;2023-08-24T00:43:24;3.22;;;2.30;;
42104;SDS011;70664;51.472;5.712;2023-08-24T00:46:03;3.45;;;2.35;;
42104;SDS011;70664;51.472;5.712;2023-08-24T00:48:40;3.17;;;2.40;;
42104;SDS011;70664;51.472;5.712;2023-08-24T00:51:06;3.85;;;2.10;;
42104;SDS011;70664;51.472;5.712;2023-08-24T00:53:32;3.28;;;2.22;;
42104;SDS011;70664;51.472;5.712;2023-08-24T00:56:05;3.90;;;2.47;;
42104;SDS011;70664;51.472;5.712;2023-08-24T00:58:32;2.42;;;1.98;;
42104;SDS011;70664;51.472;5.712;2023-08-24T01:01:49;2.95;;;2.25;;
42104;SDS011;70664;51.472;5.712;2023-08-24T01:04:58;3.00;;;2.50;;
42104;SDS011;70664;51.472;5.712;2023-08-24T01:07:53;3.53;;;2.25;;
42104;SDS011;70664;51.472;5.712;2023-08-24T01:20:31;3.28;;;2.40;;
42104;SDS011;70664;51.472;5.712;2023-08-24T01:23:15;3.38;;;2.10;;
42104;SDS011;70664;51.472;5.712;2023-08-24T01:26:46;4.03;;;2.10;;
42104;SDS011;70664;51.472;5.712;2023-08-24T01:29:17;3.92;;;2.22;;
42104;SDS011;70664;51.472;5.712;2023-08-24T01:31:48;2.88;;;2.25;;
42104;SDS011;70664;51.472;5.712;2023-08-24T01:34:14;3.90;;;2.53;;
42104;SDS011;70664;51.472;5.712;2023-08-24T01:36:41;3.42;;;2.10;;
42104;SDS011;70664;51.472;5.712;2023-08-24T01:41:59;3.08;;;2.35;;
42104;SDS011;70664;51.472;5.712;2023-08-24T01:44:42;3.35;;;2.22;;
42104;SDS011;70664;51.472;5.712;2023-08-24T01:47:15;3.08;;;2.40;;
42104;SDS011;70664;51.472;5.712;2023-08-24T01:49:46;6.97;;;2.10;;
42104;SDS011;70664;51.472;5.712;2023-08-24T01:55:32;3.05;;;2.25;;
42104;SDS011;70664;51.472;5.712;2023-08-24T01:58:37;3.45;;;2.30;;
42104;SDS011;70664;51.472;5.712;2023-08-24T02:01:07;2.45;;;2.15;;
42104;SDS011;70664;51.472;5.712;2023-08-24T02:03:41;2.78;;;2.20;;
42104;SDS011;70664;51.472;5.712;2023-08-24T02:06:07;2.47;;;2.10;;
42104;SDS011;70664;51.472;5.712;2023-08-24T02:08:34;3.92;;;2.40;;
42104;SDS011;70664;51.472;5.712;2023-08-24T02:11:00;2.75;;;2.22;;
42104;SDS011;70664;51.472;5.712;2023-08-24T02:13:26;2.97;;;2.25;;
42104;SDS011;70664;51.472;5.712;2023-08-24T02:16:05;4.90;;;2.00;;
42104;SDS011;70664;51.472;5.712;2023-08-24T02:18:38;2.67;;;2.20;;
42104;SDS011;70664;51.472;5.712;2023-08-24T02:21:15;3.40;;;2.10;;
42104;SDS011;70664;51.472;5.712;2023-08-24T02:23:41;4.18;;;2.03;;
42104;SDS011;70664;51.472;5.712;2023-08-24T02:26:16;3.00;;;1.98;;
42104;SDS011;70664;51.472;5.712;2023-08-24T02:28:42;2.47;;;2.05;;
42104;SDS011;70664;51.472;5.712;2023-08-24T02:31:08;4.68;;;2.47;;
42104;SDS011;70664;51.472;5.712;2023-08-24T02:33:39;2.92;;;2.03;;
42104;SDS011;70664;51.472;5.712;2023-08-24T02:36:19;2.83;;;2.00;;
42104;SDS011;70664;51.472;5.712;2023-08-24T02:38:55;2.78;;;2.28;;
42104;SDS011;70664;51.472;5.712;2023-08-24T02:41:22;3.30;;;2.17;;
42104;SDS011;70664;51.472;5.712;2023-08-24T02:43:47;4.13;;;2.00;;
42104;SDS011;70664;51.472;5.712;2023-08-24T02:46:13;2.42;;;2.10;;
42104;SDS011;70664;51.472;5.712;2023-08-24T02:48:39;4.10;;;2.00;;
42104;SDS011;70664;51.472;5.712;2023-08-24T02:51:09;5.78;;;2.20;;
42104;SDS011;70664;51.472;5.712;2023-08-24T02:54:01;3.90;;;2.17;;
42104;SDS011;70664;51.472;5.712;2023-08-24T02:59:00;2.25;;;1.80;;
42104;SDS011;70664;51.472;5.712;2023-08-24T03:01:28;3.30;;;2.22;;
42104;SDS011;70664;51.472;5.712;2023-08-24T03:04:12;2.60;;;1.85;;
42104;SDS011;70664;51.472;5.712;2023-08-24T03:06:38;3.13;;;2.25;;
42104;SDS011;70664;51.472;5.712;2023-08-24T03:09:04;3.13;;;2.10;;
42104;SDS011;70664;51.472;5.712;2023-08-24T03:16:41;4.18;;;2.05;;
42104;SDS011;70664;51.472;5.712;2023-08-24T03:19:09;2.45;;;1.90;;
42104;SDS011;70664;51.472;5.712;2023-08-24T03:21:37;3.42;;;1.95;;
42104;SDS011;70664;51.472;5.712;2023-08-24T03:24:02;2.08;;;1.77;;
42104;SDS011;70664;51.472;5.712;2023-08-24T03:26:29;2.72;;;2.10;;
42104;SDS011;70664;51.472;5.712;2023-08-24T03:28:58;2.90;;;2.00;;
42104;SDS011;70664;51.472;5.712;2023-08-24T03:31:24;4.00;;;2.15;;
42104;SDS011;70664;51.472;5.712;2023-08-24T03:33:51;2.33;;;2.00;;
42104;SDS011;70664;51.472;5.712;2023-08-24T03:36:17;4.20;;;1.92;;
42104;SDS011;70664;51.472;5.712;2023-08-24T03:38:44;2.90;;;2.05;;
42104;SDS011;70664;51.472;5.712;2023-08-24T03:41:10;2.45;;;2.05;;
42104;SDS011;70664;51.472;5.712;2023-08-24T03:43:36;3.20;;;2.30;;
42104;SDS011;70664;51.472;5.712;2023-08-24T03:46:05;2.45;;;2.03;;
42104;SDS011;70664;51.472;5.712;2023-08-24T03:48:31;2.33;;;1.80;;
42104;SDS011;70664;51.472;5.712;2023-08-24T03:50:57;2.80;;;1.85;;
42104;SDS011;70664;51.472;5.712;2023-08-24T03:53:24;4.00;;;2.10;;
42104;SDS011;70664;51.472;5.712;2023-08-24T03:55:50;2.40;;;2.05;;
42104;SDS011;70664;51.472;5.712;2023-08-24T03:58:18;2.83;;;1.95;;
42104;SDS011;70664;51.472;5.712;2023-08-24T04:00:44;2.83;;;2.15;;
42104;SDS011;70664;51.472;5.712;2023-08-24T04:03:10;2.50;;;1.90;;
42104;SDS011;70664;51.472;5.712;2023-08-24T04:05:37;2.88;;;2.10;;
42104;SDS011;70664;51.472;5.712;2023-08-24T04:08:03;2.45;;;2.22;;
42104;SDS011;70664;51.472;5.712;2023-08-24T04:10:29;2.05;;;1.85;;
42104;SDS011;70664;51.472;5.712;2023-08-24T04:12:56;2.97;;;2.22;;
42104;SDS011;70664;51.472;5.712;2023-08-24T04:15:22;2.20;;;2.00;;
42104;SDS011;70664;51.472;5.712;2023-08-24T04:17:48;2.45;;;2.05;;
42104;SDS011;70664;51.472;5.712;2023-08-24T04:20:14;2.83;;;2.15;;
42104;SDS011;70664;51.472;5.712;2023-08-24T04:22:41;2.47;;;1.98;;
42104;SDS011;70664;51.472;5.712;2023-08-24T04:25:08;2.75;;;2.10;;
42104;SDS011;70664;51.472;5.712;2023-08-24T04:27:45;2.17;;;1.85;;
42104;SDS011;70664;51.472;5.712;2023-08-24T04:30:11;3.08;;;2.00;;
42104;SDS011;70664;51.472;5.712;2023-08-24T04:32:39;2.40;;;1.98;;
42104;SDS011;70664;51.472;5.712;2023-08-24T04:35:13;3.38;;;2.05;;
42104;SDS011;70664;51.472;5.712;2023-08-24T04:37:39;3.15;;;2.00;;
42104;SDS011;70664;51.472;5.712;2023-08-24T04:40:05;3.60;;;2.10;;
42104;SDS011;70664;51.472;5.712;2023-08-24T04:42:40;1.92;;;1.75;;
42104;SDS011;70664;51.472;5.712;2023-08-24T04:45:07;2.47;;;1.95;;
42104;SDS011;70664;51.472;5.712;2023-08-24T04:47:33;2.00;;;1.80;;
42104;SDS011;70664;51.472;5.712;2023-08-24T04:49:59;2.75;;;2.13;;
42104;SDS011;70664;51.472;5.712;2023-08-24T04:52:25;3.30;;;2.10;;
42104;SDS011;70664;51.472;5.712;2023-08-24T04:54:51;2.50;;;1.90;;
42104;SDS011;70664;51.472;5.712;2023-08-24T04:57:17;3.40;;;2.10;;
42104;SDS011;70664;51.472;5.712;2023-08-24T04:59:43;3.03;;;2.03;;
42104;SDS011;70664;51.472;5.712;2023-08-24T05:02:09;2.17;;;1.98;;
42104;SDS011;70664;51.472;5.712;2023-08-24T05:04:40;3.35;;;2.00;;
42104;SDS011;70664;51.472;5.712;2023-08-24T05:07:06;2.38;;;2.03;;
42104;SDS011;70664;51.472;5.712;2023-08-24T05:09:32;3.13;;;2.00;;
42104;SDS011;70664;51.472;5.712;2023-08-24T05:11:57;3.17;;;2.10;;
42104;SDS011;70664;51.472;5.712;2023-08-24T05:14:24;2.40;;;2.20;;
42104;SDS011;70664;51.472;5.712;2023-08-24T05:16:49;2.55;;;2.00;;
42104;SDS011;70664;51.472;5.712;2023-08-24T05:19:24;2.97;;;2.10;;
42104;SDS011;70664;51.472;5.712;2023-08-24T05:21:50;2.40;;;1.92;;
42104;SDS011;70664;51.472;5.712;2023-08-24T05:24:16;2.80;;;2.13;;
42104;SDS011;70664;51.472;5.712;2023-08-24T05:26:42;3.70;;;2.05;;
42104;SDS011;70664;51.472;5.712;2023-08-24T05:29:11;2.03;;;1.67;;
42104;SDS011;70664;51.472;5.712;2023-08-24T05:31:37;2.75;;;2.08;;
42104;SDS011;70664;51.472;5.712;2023-08-24T05:34:03;2.70;;;1.95;;
42104;SDS011;70664;51.472;5.712;2023-08-24T05:36:29;3.17;;;1.90;;
42104;SDS011;70664;51.472;5.712;2023-08-24T05:38:57;3.30;;;2.00;;
42104;SDS011;70664;51.472;5.712;2023-08-24T05:41:23;2.53;;;1.90;;
42104;SDS011;70664;51.472;5.712;2023-08-24T05:43:49;2.92;;;2.00;;
42104;SDS011;70664;51.472;5.712;2023-08-24T05:46:17;3.33;;;2.00;;
42104;SDS011;70664;51.472;5.712;2023-08-24T05:48:46;1.92;;;1.77;;
42104;SDS011;70664;51.472;5.712;2023-08-24T05:51:12;2.47;;;2.15;;
42104;SDS011;70664;51.472;5.712;2023-08-24T05:53:39;2.30;;;2.10;;
42104;SDS011;70664;51.472;5.712;2023-08-24T05:58:42;3.17;;;1.83;;
42104;SDS011;70664;51.472;5.712;2023-08-24T06:01:17;2.17;;;1.90;;
42104;SDS011;70664;51.472;5.712;2023-08-24T06:03:43;2.40;;;2.00;;
42104;SDS011;70664;51.472;5.712;2023-08-24T06:06:09;3.47;;;2.00;;
42104;SDS011;70664;51.472;5.712;2023-08-24T06:08:38;3.13;;;2.20;;
42104;SDS011;70664;51.472;5.712;2023-08-24T06:11:03;2.38;;;1.88;;
42104;SDS011;70664;51.472;5.712;2023-08-24T06:13:29;2.53;;;2.20;;
42104;SDS011;70664;51.472;5.712;2023-08-24T06:15:55;5.55;;;2.20;;
42104;SDS011;70664;51.472;5.712;2023-08-24T06:18:24;2.78;;;2.20;;
42104;SDS011;70664;51.472;5.712;2023-08-24T06:21:11;2.38;;;2.00;;
42104;SDS011;70664;51.472;5.712;2023-08-24T06:23:39;2.50;;;2.00;;
42104;SDS011;70664;51.472;5.712;2023-08-24T06:26:05;18.45;;;9.68;;
42104;SDS011;70664;51.472;5.712;2023-08-24T06:28:34;16.52;;;10.68;;
42104;SDS011;70664;51.472;5.712;2023-08-24T06:31:00;21.25;;;11.50;;
42104;SDS011;70664;51.472;5.712;2023-08-24T06:33:44;17.02;;;11.05;;
42104;SDS011;70664;51.472;5.712;2023-08-24T06:37:04;16.48;;;11.93;;
42104;SDS011;70664;51.472;5.712;2023-08-24T06:43:18;21.75;;;12.98;;
42104;SDS011;70664;51.472;5.712;2023-08-24T06:46:13;18.50;;;12.27;;
42104;SDS011;70664;51.472;5.712;2023-08-24T06:48:39;18.58;;;11.77;;
42104;SDS011;70664;51.472;5.712;2023-08-24T06:51:08;18.33;;;13.27;;
42104;SDS011;70664;51.472;5.712;2023-08-24T06:53:38;18.52;;;12.55;;
42104;SDS011;70664;51.472;5.712;2023-08-24T06:56:04;17.55;;;12.20;;
42104;SDS011;70664;51.472;5.712;2023-08-24T06:58:29;20.50;;;12.10;;
42104;SDS011;70664;51.472;5.712;2023-08-24T07:04:48;14.82;;;11.23;;
42104;SDS011;70664;51.472;5.712;2023-08-24T07:11:01;14.93;;;10.23;;
42104;SDS011;70664;51.472;5.712;2023-08-24T07:23:48;17.65;;;9.88;;
42104;SDS011;70664;51.472;5.712;2023-08-24T07:26:20;15.90;;;9.77;;
42104;SDS011;70664;51.472;5.712;2023-08-24T07:32:14;14.32;;;9.07;;
42104;SDS011;70664;51.472;5.712;2023-08-24T07:34:40;15.05;;;9.63;;
42104;SDS011;70664;51.472;5.712;2023-08-24T07:37:06;14.18;;;9.23;;
42104;SDS011;70664;51.472;5.712;2023-08-24T07:39:32;15.48;;;9.02;;
42104;SDS011;70664;51.472;5.712;2023-08-24T07:41:59;13.68;;;8.80;;
42104;SDS011;70664;51.472;5.712;2023-08-24T07:44:24;11.63;;;7.88;;
42104;SDS011;70664;51.472;5.712;2023-08-24T07:46:50;14.32;;;8.68;;
42104;SDS011;70664;51.472;5.712;2023-08-24T07:49:19;14.48;;;8.70;;
42104;SDS011;70664;51.472;5.712;2023-08-24T07:52:29;13.43;;;8.00;;
42104;SDS011;70664;51.472;5.712;2023-08-24T07:58:31;11.98;;;7.63;;
42104;SDS011;70664;51.472;5.712;2023-08-24T08:01:08;17.15;;;7.03;;
42104;SDS011;70664;51.472;5.712;2023-08-24T08:04:19;11.80;;;6.15;;
42104;SDS011;70664;51.472;5.712;2023-08-24T08:07:46;13.70;;;6.55;;
42104;SDS011;70664;51.472;5.712;2023-08-24T08:11:05;9.13;;;5.65;;
42104;SDS011;70664;51.472;5.712;2023-08-24T08:14:28;9.73;;;5.28;;
42104;SDS011;70664;51.472;5.712;2023-08-24T08:17:15;13.45;;;6.45;;
42104;SDS011;70664;51.472;5.712;2023-08-24T08:20:12;9.05;;;5.70;;
42104;SDS011;70664;51.472;5.712;2023-08-24T08:23:08;10.05;;;5.85;;
42104;SDS011;70664;51.472;5.712;2023-08-24T08:26:23;9.77;;;5.15;;
42104;SDS011;70664;51.472;5.712;2023-08-24T08:29:50;9.00;;;4.80;;
42104;SDS011;70664;51.472;5.712;2023-08-24T08:35:47;6.97;;;4.80;;
42104;SDS011;70664;51.472;5.712;2023-08-24T08:39:12;7.47;;;4.63;;
42104;SDS011;70664;51.472;5.712;2023-08-24T08:42:30;9.00;;;5.18;;
42104;SDS011;70664;51.472;5.712;2023-08-24T08:45:28;7.85;;;4.65;;
42104;SDS011;70664;51.472;5.712;2023-08-24T08:48:24;12.38;;;5.10;;
42104;SDS011;70664;51.472;5.712;2023-08-24T08:51:11;5.05;;;3.83;;
42104;SDS011;70664;51.472;5.712;2023-08-24T08:53:38;5.80;;;4.20;;
42104;SDS011;70664;51.472;5.712;2023-08-24T08:56:10;5.88;;;3.95;;
42104;SDS011;70664;51.472;5.712;2023-08-24T08:58:56;9.57;;;4.15;;
42104;SDS011;70664;51.472;5.712;2023-08-24T09:01:32;8.80;;;4.00;;
42104;SDS011;70664;51.472;5.712;2023-08-24T09:03:57;6.38;;;4.50;;
42104;SDS011;70664;51.472;5.712;2023-08-24T09:06:24;6.35;;;4.03;;
42104;SDS011;70664;51.472;5.712;2023-08-24T09:08:50;6.40;;;3.83;;
42104;SDS011;70664;51.472;5.712;2023-08-24T09:11:17;10.82;;;4.32;;
42104;SDS011;70664;51.472;5.712;2023-08-24T09:13:44;8.48;;;3.78;;
42104;SDS011;70664;51.472;5.712;2023-08-24T09:16:10;8.88;;;4.15;;
42104;SDS011;70664;51.472;5.712;2023-08-24T09:18:46;8.82;;;4.07;;
42104;SDS011;70664;51.472;5.712;2023-08-24T09:21:13;15.75;;;4.35;;
42104;SDS011;70664;51.472;5.712;2023-08-24T09:23:53;8.40;;;4.03;;
42104;SDS011;70664;51.472;5.712;2023-08-24T09:26:36;12.27;;;4.28;;
42104;SDS011;70664;51.472;5.712;2023-08-24T09:29:15;5.82;;;4.00;;
42104;SDS011;70664;51.472;5.712;2023-08-24T09:31:42;7.38;;;3.60;;
42104;SDS011;70664;51.472;5.712;2023-08-24T09:34:11;10.60;;;4.28;;
42104;SDS011;70664;51.472;5.712;2023-08-24T09:36:51;8.90;;;3.80;;
42104;SDS011;70664;51.472;5.712;2023-08-24T09:39:23;7.28;;;3.80;;
42104;SDS011;70664;51.472;5.712;2023-08-24T09:42:14;9.30;;;4.10;;
42104;SDS011;70664;51.472;5.712;2023-08-24T09:52:01;6.53;;;3.70;;
42104;SDS011;70664;51.472;5.712;2023-08-24T09:55:11;7.50;;;4.07;;
42104;SDS011;70664;51.472;5.712;2023-08-24T09:58:34;7.85;;;3.55;;
42104;SDS011;70664;51.472;5.712;2023-08-24T10:08:59;7.00;;;3.78;;
42104;SDS011;70664;51.472;5.712;2023-08-24T10:11:47;7.53;;;3.58;;
42104;SDS011;70664;51.472;5.712;2023-08-24T10:14:59;7.18;;;4.05;;
42104;SDS011;70664;51.472;5.712;2023-08-24T10:24:59;8.77;;;3.85;;
42104;SDS011;70664;51.472;5.712;2023-08-24T10:28:15;6.50;;;3.72;;
42104;SDS011;70664;51.472;5.712;2023-08-24T10:31:54;8.52;;;3.78;;
42104;SDS011;70664;51.472;5.712;2023-08-24T11:10:02;7.38;;;4.32;;
42104;SDS011;70664;51.472;5.712;2023-08-24T11:16:59;10.65;;;4.75;;
42104;SDS011;70664;51.472;5.712;2023-08-24T11:20:06;12.13;;;4.65;;
42104;SDS011;70664;51.472;5.712;2023-08-24T11:26:48;10.77;;;4.75;;
42104;SDS011;70664;51.472;5.712;2023-08-24T11:29:58;11.00;;;4.43;;
42104;SDS011;70664;51.472;5.712;2023-08-24T11:32:25;8.63;;;4.65;;
42104;SDS011;70664;51.472;5.712;2023-08-24T11:34:51;7.95;;;4.45;;
42104;SDS011;70664;51.472;5.712;2023-08-24T11:37:20;8.43;;;4.38;;
42104;SDS011;70664;51.472;5.712;2023-08-24T11:39:46;8.95;;;4.70;;
42104;SDS011;70664;51.472;5.712;2023-08-24T11:42:11;8.30;;;4.63;;
42104;SDS011;70664;51.472;5.712;2023-08-24T11:44:44;8.27;;;4.75;;
42104;SDS011;70664;51.472;5.712;2023-08-24T11:47:11;10.27;;;4.97;;
42104;SDS011;70664;51.472;5.712;2023-08-24T11:49:38;9.73;;;4.90;;
42104;SDS011;70664;51.472;5.712;2023-08-24T11:52:06;7.55;;;4.88;;
42104;SDS011;70664;51.472;5.712;2023-08-24T11:54:33;9.93;;;4.97;;
42104;SDS011;70664;51.472;5.712;2023-08-24T11:57:06;9.02;;;4.93;;
42104;SDS011;70664;51.472;5.712;2023-08-24T11:59:33;11.55;;;5.05;;
42104;SDS011;70664;51.472;5.712;2023-08-24T12:02:01;8.15;;;5.00;;
42104;SDS011;70664;51.472;5.712;2023-08-24T12:04:37;12.27;;;5.53;;
42104;SDS011;70664;51.472;5.712;2023-08-24T12:07:12;10.43;;;4.88;;
42104;SDS011;70664;51.472;5.712;2023-08-24T12:09:40;10.90;;;4.65;;
42104;SDS011;70664;51.472;5.712;2023-08-24T12:12:16;8.48;;;4.90;;
42104;SDS011;70664;51.472;5.712;2023-08-24T12:14:44;9.73;;;4.72;;
42104;SDS011;70664;51.472;5.712;2023-08-24T12:17:23;8.25;;;5.03;;
42104;SDS011;70664;51.472;5.712;2023-08-24T12:19:58;10.07;;;5.00;;
42104;SDS011;70664;51.472;5.712;2023-08-24T12:22:26;11.02;;;5.10;;
42104;SDS011;70664;51.472;5.712;2023-08-24T12:27:42;11.50;;;5.10;;
42104;SDS011;70664;51.472;5.712;2023-08-24T12:30:09;11.63;;;4.70;;
42104;SDS011;70664;51.472;5.712;2023-08-24T12:32:46;13.45;;;4.80;;
42104;SDS011;70664;51.472;5.712;2023-08-24T12:35:20;8.80;;;4.68;;
42104;SDS011;70664;51.472;5.712;2023-08-24T12:37:51;13.68;;;4.50;;
42104;SDS011;70664;51.472;5.712;2023-08-24T12:40:26;9.20;;;4.63;;
42104;SDS011;70664;51.472;5.712;2023-08-24T12:42:51;11.40;;;5.18;;
42104;SDS011;70664;51.472;5.712;2023-08-24T12:45:17;9.65;;;4.93;;
42104;SDS011;70664;51.472;5.712;2023-08-24T12:47:43;7.35;;;4.45;;
42104;SDS011;70664;51.472;5.712;2023-08-24T12:50:09;11.75;;;5.40;;
42104;SDS011;70664;51.472;5.712;2023-08-24T12:52:35;8.55;;;5.32;;
42104;SDS011;70664;51.472;5.712;2023-08-24T12:55:04;9.30;;;5.13;;
42104;SDS011;70664;51.472;5.712;2023-08-24T12:58:26;10.05;;;5.28;;
42104;SDS011;70664;51.472;5.712;2023-08-24T13:01:33;7.57;;;5.00;;
42104;SDS011;70664;51.472;5.712;2023-08-24T13:04:07;13.75;;;5.20;;
42104;SDS011;70664;51.472;5.712;2023-08-24T13:07:12;7.57;;;4.63;;
42104;SDS011;70664;51.472;5.712;2023-08-24T13:09:50;9.65;;;5.10;;
42104;SDS011;70664;51.472;5.712;2023-08-24T13:12:31;6.78;;;4.68;;
42104;SDS011;70664;51.472;5.712;2023-08-24T13:15:37;8.77;;;4.60;;
42104;SDS011;70664;51.472;5.712;2023-08-24T13:18:41;7.13;;;4.45;;
42104;SDS011;70664;51.472;5.712;2023-08-24T13:21:08;6.97;;;3.97;;
42104;SDS011;70664;51.472;5.712;2023-08-24T13:23:34;8.18;;;4.32;;
42104;SDS011;70664;51.472;5.712;2023-08-24T13:26:00;9.18;;;4.15;;
42104;SDS011;70664;51.472;5.712;2023-08-24T13:28:26;6.85;;;4.10;;
42104;SDS011;70664;51.472;5.712;2023-08-24T13:30:54;8.00;;;4.40;;
42104;SDS011;70664;51.472;5.712;2023-08-24T13:33:41;9.68;;;4.43;;
42104;SDS011;70664;51.472;5.712;2023-08-24T13:36:10;6.63;;;4.05;;
42104;SDS011;70664;51.472;5.712;2023-08-24T13:38:36;7.93;;;4.13;;
42104;SDS011;70664;51.472;5.712;2023-08-24T13:41:05;8.45;;;4.18;;
42104;SDS011;70664;51.472;5.712;2023-08-24T13:43:40;11.45;;;5.35;;
42104;SDS011;70664;51.472;5.712;2023-08-24T13:46:44;10.45;;;4.32;;
42104;SDS011;70664;51.472;5.712;2023-08-24T13:49:10;10.88;;;4.55;;
42104;SDS011;70664;51.472;5.712;2023-08-24T13:52:19;8.50;;;3.85;;
42104;SDS011;70664;51.472;5.712;2023-08-24T13:54:47;13.52;;;4.25;;
42104;SDS011;70664;51.472;5.712;2023-08-24T13:57:13;7.40;;;4.30;;
42104;SDS011;70664;51.472;5.712;2023-08-24T13:59:39;8.57;;;4.32;;
42104;SDS011;70664;51.472;5.712;2023-08-24T14:02:37;7.40;;;4.00;;
42104;SDS011;70664;51.472;5.712;2023-08-24T14:05:03;6.70;;;4.15;;
42104;SDS011;70664;51.472;5.712;2023-08-24T14:07:34;7.75;;;4.30;;
42104;SDS011;70664;51.472;5.712;2023-08-24T14:10:01;11.65;;;4.05;;
42104;SDS011;70664;51.472;5.712;2023-08-24T14:12:27;8.85;;;3.83;;
42104;SDS011;70664;51.472;5.712;2023-08-24T14:14:55;6.45;;;3.42;;
42104;SDS011;70664;51.472;5.712;2023-08-24T14:17:52;7.25;;;3.40;;
42104;SDS011;70664;51.472;5.712;2023-08-24T14:20:18;10.68;;;3.60;;
42104;SDS011;70664;51.472;5.712;2023-08-24T14:22:44;7.53;;;3.50;;
42104;SDS011;70664;51.472;5.712;2023-08-24T14:25:12;8.40;;;3.65;;
42104;SDS011;70664;51.472;5.712;2023-08-24T14:27:50;10.00;;;3.75;;
42104;SDS011;70664;51.472;5.712;2023-08-24T14:30:19;8.23;;;3.65;;
42104;SDS011;70664;51.472;5.712;2023-08-24T14:32:45;8.02;;;3.47;;
42104;SDS011;70664;51.472;5.712;2023-08-24T14:35:11;8.73;;;4.00;;
42104;SDS011;70664;51.472;5.712;2023-08-24T14:37:40;4.95;;;3.10;;
42104;SDS011;70664;51.472;5.712;2023-08-24T14:40:09;8.40;;;3.72;;
42104;SDS011;70664;51.472;5.712;2023-08-24T14:42:41;6.90;;;3.20;;
42104;SDS011;70664;51.472;5.712;2023-08-24T14:45:07;6.95;;;3.80;;
42104;SDS011;70664;51.472;5.712;2023-08-24T14:47:33;4.47;;;3.33;;
42104;SDS011;70664;51.472;5.712;2023-08-24T14:49:59;6.72;;;3.47;;
42104;SDS011;70664;51.472;5.712;2023-08-24T14:52:25;6.30;;;3.28;;
42104;SDS011;70664;51.472;5.712;2023-08-24T14:54:54;5.20;;;3.40;;
42104;SDS011;70664;51.472;5.712;2023-08-24T14:57:40;5.65;;;3.80;;
42104;SDS011;70664;51.472;5.712;2023-08-24T15:00:12;5.78;;;3.33;;
42104;SDS011;70664;51.472;5.712;2023-08-24T15:02:48;4.25;;;3.42;;
42104;SDS011;70664;51.472;5.712;2023-08-24T15:05:14;6.90;;;3.42;;
42104;SDS011;70664;51.472;5.712;2023-08-24T15:08:06;6.15;;;3.40;;
42104;SDS011;70664;51.472;5.712;2023-08-24T15:10:32;6.28;;;3.33;;
42104;SDS011;70664;51.472;5.712;2023-08-24T15:12:58;6.53;;;3.10;;
42104;SDS011;70664;51.472;5.712;2023-08-24T15:15:27;6.13;;;3.20;;
42104;SDS011;70664;51.472;5.712;2023-08-24T15:18:05;4.82;;;3.10;;
42104;SDS011;70664;51.472;5.712;2023-08-24T15:20:31;4.43;;;3.03;;
42104;SDS011;70664;51.472;5.712;2023-08-24T15:22:58;4.75;;;3.00;;
42104;SDS011;70664;51.472;5.712;2023-08-24T15:25:32;5.63;;;2.70;;
42104;SDS011;70664;51.472;5.712;2023-08-24T15:28:06;8.40;;;2.90;;
42104;SDS011;70664;51.472;5.712;2023-08-24T15:30:32;6.57;;;2.88;;
42104;SDS011;70664;51.472;5.712;2023-08-24T15:32:58;5.10;;;3.08;;
42104;SDS011;70664;51.472;5.712;2023-08-24T15:35:24;5.75;;;2.78;;
42104;SDS011;70664;51.472;5.712;2023-08-24T15:37:53;6.95;;;2.95;;
42104;SDS011;70664;51.472;5.712;2023-08-24T15:40:21;6.10;;;2.90;;
42104;SDS011;70664;51.472;5.712;2023-08-24T15:42:53;9.27;;;2.78;;
42104;SDS011;70664;51.472;5.712;2023-08-24T15:45:31;6.97;;;2.88;;
42104;SDS011;70664;51.472;5.712;2023-08-24T15:48:33;8.15;;;2.95;;
42104;SDS011;70664;51.472;5.712;2023-08-24T15:54:34;6.13;;;2.50;;
42104;SDS011;70664;51.472;5.712;2023-08-24T16:00:29;8.95;;;3.60;;
42104;SDS011;70664;51.472;5.712;2023-08-24T16:03:05;9.93;;;3.40;;
42104;SDS011;70664;51.472;5.712;2023-08-24T16:05:58;8.40;;;3.65;;
42104;SDS011;70664;51.472;5.712;2023-08-24T16:09:03;8.57;;;3.15;;
42104;SDS011;70664;51.472;5.712;2023-08-24T16:11:37;6.97;;;2.80;;
42104;SDS011;70664;51.472;5.712;2023-08-24T16:14:19;5.85;;;2.85;;
42104;SDS011;70664;51.472;5.712;2023-08-24T16:16:59;8.45;;;2.60;;
42104;SDS011;70664;51.472;5.712;2023-08-24T16:24:36;6.90;;;2.30;;
42104;SDS011;70664;51.472;5.712;2023-08-24T16:37:37;4.93;;;2.13;;
42104;SDS011;70664;51.472;5.712;2023-08-24T16:40:46;3.97;;;1.85;;
42104;SDS011;70664;51.472;5.712;2023-08-24T16:43:32;5.38;;;2.40;;
42104;SDS011;70664;51.472;5.712;2023-08-24T16:46:08;5.70;;;2.22;;
42104;SDS011;70664;51.472;5.712;2023-08-24T16:49:10;5.22;;;2.35;;
42104;SDS011;70664;51.472;5.712;2023-08-24T16:52:05;4.82;;;1.70;;
42104;SDS011;70664;51.472;5.712;2023-08-24T16:54:59;4.43;;;2.30;;
42104;SDS011;70664;51.472;5.712;2023-08-24T16:57:25;3.58;;;2.28;;
42104;SDS011;70664;51.472;5.712;2023-08-24T16:59:51;4.22;;;1.60;;
42104;SDS011;70664;51.472;5.712;2023-08-24T17:02:17;5.82;;;2.00;;
42104;SDS011;70664;51.472;5.712;2023-08-24T17:04:43;3.70;;;2.17;;
42104;SDS011;70664;51.472;5.712;2023-08-24T17:07:14;8.13;;;2.83;;
42104;SDS011;70664;51.472;5.712;2023-08-24T17:09:40;5.15;;;2.28;;
42104;SDS011;70664;51.472;5.712;2023-08-24T17:12:06;3.15;;;1.73;;
42104;SDS011;70664;51.472;5.712;2023-08-24T17:14:32;4.88;;;2.30;;
42104;SDS011;70664;51.472;5.712;2023-08-24T17:17:03;5.88;;;2.05;;
42104;SDS011;70664;51.472;5.712;2023-08-24T17:19:29;3.50;;;1.77;;
42104;SDS011;70664;51.472;5.712;2023-08-24T17:21:56;5.05;;;1.95;;
42104;SDS011;70664;51.472;5.712;2023-08-24T17:24:22;4.43;;;1.70;;
42104;SDS011;70664;51.472;5.712;2023-08-24T17:26:48;3.53;;;2.40;;
42104;SDS011;70664;51.472;5.712;2023-08-24T17:29:26;3.20;;;1.92;;
42104;SDS011;70664;51.472;5.712;2023-08-24T17:31:56;7.82;;;1.90;;
42104;SDS011;70664;51.472;5.712;2023-08-24T17:34:25;4.28;;;1.70;;
42104;SDS011;70664;51.472;5.712;2023-08-24T17:36:51;6.07;;;2.08;;
42104;SDS011;70664;51.472;5.712;2023-08-24T17:39:17;6.22;;;2.10;;
42104;SDS011;70664;51.472;5.712;2023-08-24T17:41:43;5.10;;;1.90;;
42104;SDS011;70664;51.472;5.712;2023-08-24T17:44:11;3.38;;;1.80;;
42104;SDS011;70664;51.472;5.712;2023-08-24T17:46:37;2.92;;;1.83;;
42104;SDS011;70664;51.472;5.712;2023-08-24T17:49:03;4.40;;;2.10;;
42104;SDS011;70664;51.472;5.712;2023-08-24T17:51:29;4.75;;;1.90;;
42104;SDS011;70664;51.472;5.712;2023-08-24T17:53:56;3.80;;;1.67;;
42104;SDS011;70664;51.472;5.712;2023-08-24T17:56:23;5.60;;;2.30;;
42104;SDS011;70664;51.472;5.712;2023-08-24T17:58:51;7.70;;;2.58;;
42104;SDS011;70664;51.472;5.712;2023-08-24T18:01:17;4.82;;;1.92;;
42104;SDS011;70664;51.472;5.712;2023-08-24T18:03:43;3.80;;;1.90;;
42104;SDS011;70664;51.472;5.712;2023-08-24T18:06:21;4.45;;;2.20;;